Terminal Aerodrome Forecast
Issued by NWS

Home | Current Version | Previous Version | Text Only | Print | Product List | Glossary On
Versions: 1 2 3 4 5 6 7 8 9 10 11 12 13 14 15 16
000
FTUS43 KICT 272300
TAFRSL
TAF
KRSL 272321Z 2800/2824 13009KT P6SM VCTS FEW050 OVC090CB
     FM281500 18016G23KT P6SM VCTS SCT040 BKN100CB=

USA.gov is the U.S. government's official web portal to all federal, state and local government web resources and services.